sensor_id;sensor_type;location;lat;lon;timestamp;P1;durP1;ratioP1;P2;durP2;ratioP2
52456;SDS011;38369;52.840;7.082;2024-02-16T00:00:00;12.25;;;5.55;;
52456;SDS011;38369;52.840;7.082;2024-02-16T00:02:27;7.28;;;3.53;;
52456;SDS011;38369;52.840;7.082;2024-02-16T00:04:53;9.30;;;3.75;;
52456;SDS011;38369;52.840;7.082;2024-02-16T00:07:19;8.68;;;3.47;;
52456;SDS011;38369;52.840;7.082;2024-02-16T00:09:45;11.70;;;3.58;;
52456;SDS011;38369;52.840;7.082;2024-02-16T00:12:11;16.88;;;4.78;;
52456;SDS011;38369;52.840;7.082;2024-02-16T00:14:37;5.32;;;3.33;;
52456;SDS011;38369;52.840;7.082;2024-02-16T00:17:03;6.88;;;3.40;;
52456;SDS011;38369;52.840;7.082;2024-02-16T00:19:29;8.30;;;3.97;;
52456;SDS011;38369;52.840;7.082;2024-02-16T00:21:55;9.20;;;4.70;;
52456;SDS011;38369;52.840;7.082;2024-02-16T00:24:22;6.45;;;3.75;;
52456;SDS011;38369;52.840;7.082;2024-02-16T00:26:48;11.88;;;3.83;;
52456;SDS011;38369;52.840;7.082;2024-02-16T00:29:14;7.30;;;3.38;;
52456;SDS011;38369;52.840;7.082;2024-02-16T00:31:40;7.57;;;3.45;;
52456;SDS011;38369;52.840;7.082;2024-02-16T00:34:06;3.97;;;2.88;;
52456;SDS011;38369;52.840;7.082;2024-02-16T00:36:32;6.20;;;4.10;;
52456;SDS011;38369;52.840;7.082;2024-02-16T00:38:59;5.97;;;2.97;;
52456;SDS011;38369;52.840;7.082;2024-02-16T00:41:25;7.50;;;3.72;;
52456;SDS011;38369;52.840;7.082;2024-02-16T00:43:51;7.80;;;3.60;;
52456;SDS011;38369;52.840;7.082;2024-02-16T00:46:18;6.30;;;3.22;;
52456;SDS011;38369;52.840;7.082;2024-02-16T00:48:44;6.82;;;3.10;;
52456;SDS011;38369;52.840;7.082;2024-02-16T00:51:11;5.55;;;3.25;;
52456;SDS011;38369;52.840;7.082;2024-02-16T00:53:37;5.43;;;3.30;;
52456;SDS011;38369;52.840;7.082;2024-02-16T00:56:03;8.48;;;3.90;;
52456;SDS011;38369;52.840;7.082;2024-02-16T00:58:29;8.95;;;3.35;;
52456;SDS011;38369;52.840;7.082;2024-02-16T01:00:55;7.93;;;2.83;;
52456;SDS011;38369;52.840;7.082;2024-02-16T01:03:21;6.63;;;3.05;;
52456;SDS011;38369;52.840;7.082;2024-02-16T01:05:47;10.07;;;3.13;;
52456;SDS011;38369;52.840;7.082;2024-02-16T01:08:13;5.93;;;3.08;;
52456;SDS011;38369;52.840;7.082;2024-02-16T01:10:39;6.95;;;2.90;;
52456;SDS011;38369;52.840;7.082;2024-02-16T01:13:05;11.88;;;3.42;;
52456;SDS011;38369;52.840;7.082;2024-02-16T01:15:31;4.50;;;3.08;;
52456;SDS011;38369;52.840;7.082;2024-02-16T01:17:57;5.93;;;3.47;;
52456;SDS011;38369;52.840;7.082;2024-02-16T01:20:25;9.65;;;3.30;;
52456;SDS011;38369;52.840;7.082;2024-02-16T01:22:51;5.07;;;2.65;;
52456;SDS011;38369;52.840;7.082;2024-02-16T01:25:17;6.82;;;3.80;;
52456;SDS011;38369;52.840;7.082;2024-02-16T01:27:43;5.05;;;3.33;;
52456;SDS011;38369;52.840;7.082;2024-02-16T01:30:09;9.65;;;3.97;;
52456;SDS011;38369;52.840;7.082;2024-02-16T01:32:35;7.80;;;2.97;;
52456;SDS011;38369;52.840;7.082;2024-02-16T01:35:01;6.85;;;3.70;;
52456;SDS011;38369;52.840;7.082;2024-02-16T01:37:27;6.18;;;2.70;;
52456;SDS011;38369;52.840;7.082;2024-02-16T01:39:53;10.88;;;3.80;;
52456;SDS011;38369;52.840;7.082;2024-02-16T01:42:19;7.60;;;3.20;;
52456;SDS011;38369;52.840;7.082;2024-02-16T01:44:45;10.32;;;3.13;;
52456;SDS011;38369;52.840;7.082;2024-02-16T01:47:11;8.77;;;3.08;;
52456;SDS011;38369;52.840;7.082;2024-02-16T01:49:37;7.10;;;3.42;;
52456;SDS011;38369;52.840;7.082;2024-02-16T01:52:04;8.20;;;3.70;;
52456;SDS011;38369;52.840;7.082;2024-02-16T01:54:30;7.35;;;3.25;;
52456;SDS011;38369;52.840;7.082;2024-02-16T01:56:56;10.38;;;3.42;;
52456;SDS011;38369;52.840;7.082;2024-02-16T01:59:22;7.07;;;3.47;;
52456;SDS011;38369;52.840;7.082;2024-02-16T02:01:48;9.65;;;3.92;;
52456;SDS011;38369;52.840;7.082;2024-02-16T02:04:14;5.80;;;3.30;;
52456;SDS011;38369;52.840;7.082;2024-02-16T02:06:40;11.82;;;3.70;;
52456;SDS011;38369;52.840;7.082;2024-02-16T02:09:06;8.30;;;3.65;;
52456;SDS011;38369;52.840;7.082;2024-02-16T02:11:34;7.70;;;3.75;;
52456;SDS011;38369;52.840;7.082;2024-02-16T02:14:00;5.25;;;3.38;;
52456;SDS011;38369;52.840;7.082;2024-02-16T02:16:26;7.57;;;3.83;;
52456;SDS011;38369;52.840;7.082;2024-02-16T02:18:52;7.78;;;3.20;;
52456;SDS011;38369;52.840;7.082;2024-02-16T02:21:18;5.28;;;3.38;;
52456;SDS011;38369;52.840;7.082;2024-02-16T02:23:44;7.55;;;3.42;;
52456;SDS011;38369;52.840;7.082;2024-02-16T02:26:13;6.13;;;3.70;;
52456;SDS011;38369;52.840;7.082;2024-02-16T02:28:42;9.13;;;3.42;;
52456;SDS011;38369;52.840;7.082;2024-02-16T02:31:08;8.07;;;3.58;;
52456;SDS011;38369;52.840;7.082;2024-02-16T02:33:34;7.05;;;3.70;;
52456;SDS011;38369;52.840;7.082;2024-02-16T02:36:00;8.50;;;3.67;;
52456;SDS011;38369;52.840;7.082;2024-02-16T02:38:28;9.13;;;3.85;;
52456;SDS011;38369;52.840;7.082;2024-02-16T02:40:55;8.55;;;4.20;;
52456;SDS011;38369;52.840;7.082;2024-02-16T02:43:21;11.25;;;3.60;;
52456;SDS011;38369;52.840;7.082;2024-02-16T02:45:48;11.35;;;4.57;;
52456;SDS011;38369;52.840;7.082;2024-02-16T02:48:14;8.50;;;3.60;;
52456;SDS011;38369;52.840;7.082;2024-02-16T02:50:40;6.43;;;3.30;;
52456;SDS011;38369;52.840;7.082;2024-02-16T02:53:06;5.60;;;3.90;;
52456;SDS011;38369;52.840;7.082;2024-02-16T02:55:32;8.10;;;3.60;;
52456;SDS011;38369;52.840;7.082;2024-02-16T02:57:58;5.60;;;3.42;;
52456;SDS011;38369;52.840;7.082;2024-02-16T03:00:24;4.93;;;3.63;;
52456;SDS011;38369;52.840;7.082;2024-02-16T03:02:51;7.50;;;4.28;;
52456;SDS011;38369;52.840;7.082;2024-02-16T03:05:17;8.52;;;3.67;;
52456;SDS011;38369;52.840;7.082;2024-02-16T03:07:45;9.88;;;3.92;;
52456;SDS011;38369;52.840;7.082;2024-02-16T03:10:11;7.80;;;3.83;;
52456;SDS011;38369;52.840;7.082;2024-02-16T03:12:37;9.07;;;3.88;;
52456;SDS011;38369;52.840;7.082;2024-02-16T03:15:03;8.73;;;4.00;;
52456;SDS011;38369;52.840;7.082;2024-02-16T03:17:29;8.18;;;3.80;;
52456;SDS011;38369;52.840;7.082;2024-02-16T03:19:55;7.13;;;4.35;;
52456;SDS011;38369;52.840;7.082;2024-02-16T03:22:21;6.57;;;4.20;;
52456;SDS011;38369;52.840;7.082;2024-02-16T03:24:47;8.20;;;3.92;;
52456;SDS011;38369;52.840;7.082;2024-02-16T03:27:13;5.88;;;3.28;;
52456;SDS011;38369;52.840;7.082;2024-02-16T03:29:40;8.35;;;4.03;;
52456;SDS011;38369;52.840;7.082;2024-02-16T03:32:06;8.50;;;3.63;;
52456;SDS011;38369;52.840;7.082;2024-02-16T03:34:32;10.25;;;4.20;;
52456;SDS011;38369;52.840;7.082;2024-02-16T03:36:58;8.65;;;3.38;;
52456;SDS011;38369;52.840;7.082;2024-02-16T03:39:24;5.47;;;3.38;;
52456;SDS011;38369;52.840;7.082;2024-02-16T03:41:50;7.80;;;3.67;;
52456;SDS011;38369;52.840;7.082;2024-02-16T03:44:16;8.13;;;4.15;;
52456;SDS011;38369;52.840;7.082;2024-02-16T03:46:42;9.88;;;4.07;;
52456;SDS011;38369;52.840;7.082;2024-02-16T03:49:08;8.30;;;3.35;;
52456;SDS011;38369;52.840;7.082;2024-02-16T03:51:35;6.57;;;3.70;;
52456;SDS011;38369;52.840;7.082;2024-02-16T03:54:02;8.38;;;4.45;;
52456;SDS011;38369;52.840;7.082;2024-02-16T03:56:29;10.35;;;4.30;;
52456;SDS011;38369;52.840;7.082;2024-02-16T03:58:55;7.88;;;3.88;;
52456;SDS011;38369;52.840;7.082;2024-02-16T04:01:21;11.82;;;4.30;;
52456;SDS011;38369;52.840;7.082;2024-02-16T04:03:47;9.15;;;3.47;;
52456;SDS011;38369;52.840;7.082;2024-02-16T04:06:13;7.95;;;4.18;;
52456;SDS011;38369;52.840;7.082;2024-02-16T04:08:39;11.98;;;4.13;;
52456;SDS011;38369;52.840;7.082;2024-02-16T04:11:05;9.02;;;4.07;;
52456;SDS011;38369;52.840;7.082;2024-02-16T04:13:31;5.07;;;3.70;;
52456;SDS011;38369;52.840;7.082;2024-02-16T04:15:57;7.10;;;3.70;;
52456;SDS011;38369;52.840;7.082;2024-02-16T04:18:23;8.68;;;3.45;;
52456;SDS011;38369;52.840;7.082;2024-02-16T04:20:49;6.45;;;3.63;;
52456;SDS011;38369;52.840;7.082;2024-02-16T04:23:16;8.95;;;4.75;;
52456;SDS011;38369;52.840;7.082;2024-02-16T04:25:42;7.88;;;4.00;;
52456;SDS011;38369;52.840;7.082;2024-02-16T04:28:08;7.57;;;3.88;;
52456;SDS011;38369;52.840;7.082;2024-02-16T04:30:34;8.00;;;3.78;;
52456;SDS011;38369;52.840;7.082;2024-02-16T04:33:00;8.05;;;4.10;;
52456;SDS011;38369;52.840;7.082;2024-02-16T04:35:26;7.78;;;4.32;;
52456;SDS011;38369;52.840;7.082;2024-02-16T04:37:52;5.80;;;3.78;;
52456;SDS011;38369;52.840;7.082;2024-02-16T04:40:18;9.18;;;4.50;;
52456;SDS011;38369;52.840;7.082;2024-02-16T04:42:44;8.30;;;3.85;;
52456;SDS011;38369;52.840;7.082;2024-02-16T04:45:11;6.57;;;4.15;;
52456;SDS011;38369;52.840;7.082;2024-02-16T04:47:38;10.77;;;4.32;;
52456;SDS011;38369;52.840;7.082;2024-02-16T04:50:04;7.30;;;3.90;;
52456;SDS011;38369;52.840;7.082;2024-02-16T04:52:30;7.95;;;4.22;;
52456;SDS011;38369;52.840;7.082;2024-02-16T04:54:56;10.00;;;4.25;;
52456;SDS011;38369;52.840;7.082;2024-02-16T04:57:22;8.38;;;4.00;;
52456;SDS011;38369;52.840;7.082;2024-02-16T04:59:48;7.47;;;4.35;;
52456;SDS011;38369;52.840;7.082;2024-02-16T05:02:14;9.40;;;3.80;;
52456;SDS011;38369;52.840;7.082;2024-02-16T05:04:40;7.25;;;3.97;;
52456;SDS011;38369;52.840;7.082;2024-02-16T05:07:06;7.45;;;3.80;;
52456;SDS011;38369;52.840;7.082;2024-02-16T05:09:32;14.30;;;4.80;;
52456;SDS011;38369;52.840;7.082;2024-02-16T05:11:58;7.53;;;4.07;;
52456;SDS011;38369;52.840;7.082;2024-02-16T05:14:24;7.15;;;3.75;;
52456;SDS011;38369;52.840;7.082;2024-02-16T05:16:50;7.78;;;4.03;;
52456;SDS011;38369;52.840;7.082;2024-02-16T05:19:16;10.95;;;4.90;;
52456;SDS011;38369;52.840;7.082;2024-02-16T05:21:43;8.27;;;5.28;;
52456;SDS011;38369;52.840;7.082;2024-02-16T05:24:09;9.63;;;4.65;;
52456;SDS011;38369;52.840;7.082;2024-02-16T05:26:36;6.68;;;4.07;;
52456;SDS011;38369;52.840;7.082;2024-02-16T05:29:03;8.35;;;4.55;;
52456;SDS011;38369;52.840;7.082;2024-02-16T05:31:29;10.55;;;4.15;;
52456;SDS011;38369;52.840;7.082;2024-02-16T05:33:56;9.70;;;3.75;;
52456;SDS011;38369;52.840;7.082;2024-02-16T05:36:22;8.95;;;3.83;;
52456;SDS011;38369;52.840;7.082;2024-02-16T05:38:55;7.45;;;3.58;;
52456;SDS011;38369;52.840;7.082;2024-02-16T05:41:24;6.78;;;3.35;;
52456;SDS011;38369;52.840;7.082;2024-02-16T05:43:50;7.15;;;3.80;;
52456;SDS011;38369;52.840;7.082;2024-02-16T05:46:16;7.53;;;4.63;;
52456;SDS011;38369;52.840;7.082;2024-02-16T05:48:42;9.63;;;4.15;;
52456;SDS011;38369;52.840;7.082;2024-02-16T05:51:09;9.10;;;3.80;;
52456;SDS011;38369;52.840;7.082;2024-02-16T05:53:37;8.57;;;4.07;;
52456;SDS011;38369;52.840;7.082;2024-02-16T05:56:04;6.22;;;3.35;;
52456;SDS011;38369;52.840;7.082;2024-02-16T05:58:30;9.98;;;4.43;;
52456;SDS011;38369;52.840;7.082;2024-02-16T06:00:56;7.15;;;3.90;;
52456;SDS011;38369;52.840;7.082;2024-02-16T06:03:22;10.75;;;5.25;;
52456;SDS011;38369;52.840;7.082;2024-02-16T06:05:48;6.18;;;3.30;;
52456;SDS011;38369;52.840;7.082;2024-02-16T06:08:14;5.40;;;3.20;;
52456;SDS011;38369;52.840;7.082;2024-02-16T06:10:42;10.98;;;3.90;;
52456;SDS011;38369;52.840;7.082;2024-02-16T06:13:09;6.97;;;4.20;;
52456;SDS011;38369;52.840;7.082;2024-02-16T06:15:35;7.15;;;3.50;;
52456;SDS011;38369;52.840;7.082;2024-02-16T06:18:03;5.03;;;3.17;;
52456;SDS011;38369;52.840;7.082;2024-02-16T06:20:29;8.05;;;3.80;;
52456;SDS011;38369;52.840;7.082;2024-02-16T06:22:55;5.63;;;3.38;;
52456;SDS011;38369;52.840;7.082;2024-02-16T06:25:21;12.48;;;3.72;;
52456;SDS011;38369;52.840;7.082;2024-02-16T06:27:47;9.75;;;4.60;;
52456;SDS011;38369;52.840;7.082;2024-02-16T06:30:13;12.75;;;4.50;;
52456;SDS011;38369;52.840;7.082;2024-02-16T06:32:39;6.43;;;3.88;;
52456;SDS011;38369;52.840;7.082;2024-02-16T06:35:08;7.40;;;4.50;;
52456;SDS011;38369;52.840;7.082;2024-02-16T06:37:34;7.35;;;4.40;;
52456;SDS011;38369;52.840;7.082;2024-02-16T06:40:02;7.63;;;4.78;;
52456;SDS011;38369;52.840;7.082;2024-02-16T06:42:29;8.80;;;4.97;;
52456;SDS011;38369;52.840;7.082;2024-02-16T06:44:55;13.38;;;5.78;;
52456;SDS011;38369;52.840;7.082;2024-02-16T06:47:21;6.18;;;3.88;;
52456;SDS011;38369;52.840;7.082;2024-02-16T06:49:50;8.40;;;4.10;;
52456;SDS011;38369;52.840;7.082;2024-02-16T06:52:16;6.60;;;4.18;;
52456;SDS011;38369;52.840;7.082;2024-02-16T06:54:42;6.47;;;4.18;;
52456;SDS011;38369;52.840;7.082;2024-02-16T06:57:08;9.80;;;4.45;;
52456;SDS011;38369;52.840;7.082;2024-02-16T06:59:34;6.60;;;4.47;;
52456;SDS011;38369;52.840;7.082;2024-02-16T07:02:00;5.80;;;4.05;;
52456;SDS011;38369;52.840;7.082;2024-02-16T07:04:26;6.20;;;3.80;;
52456;SDS011;38369;52.840;7.082;2024-02-16T07:06:53;7.43;;;4.35;;
52456;SDS011;38369;52.840;7.082;2024-02-16T07:09:19;9.13;;;3.70;;
52456;SDS011;38369;52.840;7.082;2024-02-16T07:11:47;8.82;;;4.47;;
52456;SDS011;38369;52.840;7.082;2024-02-16T07:14:15;6.85;;;4.10;;
52456;SDS011;38369;52.840;7.082;2024-02-16T07:16:41;8.80;;;3.75;;
52456;SDS011;38369;52.840;7.082;2024-02-16T07:19:08;7.35;;;3.55;;
52456;SDS011;38369;52.840;7.082;2024-02-16T07:21:34;8.95;;;4.10;;
52456;SDS011;38369;52.840;7.082;2024-02-16T07:24:00;8.98;;;4.80;;
52456;SDS011;38369;52.840;7.082;2024-02-16T07:26:26;6.75;;;3.80;;
52456;SDS011;38369;52.840;7.082;2024-02-16T07:28:54;8.13;;;4.20;;
52456;SDS011;38369;52.840;7.082;2024-02-16T07:31:20;8.18;;;4.70;;
52456;SDS011;38369;52.840;7.082;2024-02-16T07:33:46;8.00;;;4.60;;
52456;SDS011;38369;52.840;7.082;2024-02-16T07:36:12;7.13;;;4.28;;
52456;SDS011;38369;52.840;7.082;2024-02-16T07:38:39;8.02;;;4.53;;
52456;SDS011;38369;52.840;7.082;2024-02-16T07:41:05;9.32;;;4.70;;
52456;SDS011;38369;52.840;7.082;2024-02-16T07:43:32;8.35;;;4.07;;
52456;SDS011;38369;52.840;7.082;2024-02-16T07:45:58;7.82;;;4.32;;
52456;SDS011;38369;52.840;7.082;2024-02-16T07:48:27;8.65;;;4.20;;
52456;SDS011;38369;52.840;7.082;2024-02-16T07:50:54;5.75;;;3.80;;
52456;SDS011;38369;52.840;7.082;2024-02-16T07:53:23;9.02;;;4.53;;
52456;SDS011;38369;52.840;7.082;2024-02-16T07:55:49;8.90;;;4.18;;
52456;SDS011;38369;52.840;7.082;2024-02-16T07:58:15;8.45;;;4.20;;
52456;SDS011;38369;52.840;7.082;2024-02-16T08:00:41;5.05;;;3.78;;
52456;SDS011;38369;52.840;7.082;2024-02-16T08:03:07;7.90;;;3.97;;
52456;SDS011;38369;52.840;7.082;2024-02-16T08:05:33;7.13;;;4.00;;
52456;SDS011;38369;52.840;7.082;2024-02-16T08:07:59;6.25;;;4.28;;
52456;SDS011;38369;52.840;7.082;2024-02-16T08:10:25;9.88;;;4.95;;
52456;SDS011;38369;52.840;7.082;2024-02-16T08:12:51;7.20;;;3.60;;
52456;SDS011;38369;52.840;7.082;2024-02-16T08:15:17;9.40;;;4.35;;
52456;SDS011;38369;52.840;7.082;2024-02-16T08:17:51;5.55;;;3.88;;
52456;SDS011;38369;52.840;7.082;2024-02-16T08:20:17;5.05;;;4.22;;
52456;SDS011;38369;52.840;7.082;2024-02-16T08:22:43;10.80;;;4.90;;
52456;SDS011;38369;52.840;7.082;2024-02-16T08:25:09;7.05;;;4.63;;
52456;SDS011;38369;52.840;7.082;2024-02-16T08:27:35;11.10;;;4.65;;
52456;SDS011;38369;52.840;7.082;2024-02-16T08:30:03;7.35;;;3.78;;
52456;SDS011;38369;52.840;7.082;2024-02-16T08:32:29;8.00;;;4.40;;
52456;SDS011;38369;52.840;7.082;2024-02-16T08:34:55;7.30;;;4.20;;
52456;SDS011;38369;52.840;7.082;2024-02-16T08:37:21;9.15;;;3.70;;
52456;SDS011;38369;52.840;7.082;2024-02-16T08:39:47;7.50;;;4.43;;
52456;SDS011;38369;52.840;7.082;2024-02-16T08:42:13;8.00;;;4.60;;
52456;SDS011;38369;52.840;7.082;2024-02-16T08:44:40;7.45;;;4.30;;
52456;SDS011;38369;52.840;7.082;2024-02-16T08:47:07;7.45;;;4.13;;
52456;SDS011;38369;52.840;7.082;2024-02-16T08:49:34;8.25;;;4.72;;
52456;SDS011;38369;52.840;7.082;2024-02-16T08:52:00;10.07;;;4.75;;
52456;SDS011;38369;52.840;7.082;2024-02-16T08:54:26;5.20;;;3.85;;
52456;SDS011;38369;52.840;7.082;2024-02-16T08:56:55;7.85;;;4.32;;
52456;SDS011;38369;52.840;7.082;2024-02-16T08:59:21;8.77;;;4.60;;
52456;SDS011;38369;52.840;7.082;2024-02-16T09:01:47;10.80;;;4.63;;
52456;SDS011;38369;52.840;7.082;2024-02-16T09:04:13;8.77;;;5.10;;
52456;SDS011;38369;52.840;7.082;2024-02-16T09:06:40;7.93;;;4.40;;
52456;SDS011;38369;52.840;7.082;2024-02-16T09:09:07;8.02;;;4.45;;
52456;SDS011;38369;52.840;7.082;2024-02-16T09:11:33;7.45;;;4.47;;
52456;SDS011;38369;52.840;7.082;2024-02-16T09:13:59;9.82;;;4.60;;
52456;SDS011;38369;52.840;7.082;2024-02-16T09:16:25;9.27;;;4.10;;
52456;SDS011;38369;52.840;7.082;2024-02-16T09:18:51;9.30;;;5.07;;
52456;SDS011;38369;52.840;7.082;2024-02-16T09:21:17;6.32;;;4.28;;
52456;SDS011;38369;52.840;7.082;2024-02-16T09:23:44;5.32;;;3.50;;
52456;SDS011;38369;52.840;7.082;2024-02-16T09:26:10;7.78;;;4.28;;
52456;SDS011;38369;52.840;7.082;2024-02-16T09:28:40;7.18;;;4.47;;
52456;SDS011;38369;52.840;7.082;2024-02-16T09:31:06;8.80;;;4.05;;
52456;SDS011;38369;52.840;7.082;2024-02-16T09:33:35;6.88;;;3.95;;
52456;SDS011;38369;52.840;7.082;2024-02-16T09:36:01;6.90;;;4.60;;
52456;SDS011;38369;52.840;7.082;2024-02-16T09:38:29;6.68;;;4.25;;
52456;SDS011;38369;52.840;7.082;2024-02-16T09:40:55;8.65;;;5.10;;
52456;SDS011;38369;52.840;7.082;2024-02-16T09:43:25;5.93;;;4.00;;
52456;SDS011;38369;52.840;7.082;2024-02-16T09:45:58;8.68;;;4.03;;
52456;SDS011;38369;52.840;7.082;2024-02-16T09:48:28;8.02;;;4.00;;
52456;SDS011;38369;52.840;7.082;2024-02-16T09:50:55;6.65;;;4.15;;
52456;SDS011;38369;52.840;7.082;2024-02-16T09:53:23;8.40;;;4.75;;
52456;SDS011;38369;52.840;7.082;2024-02-16T09:55:50;9.75;;;4.43;;
52456;SDS011;38369;52.840;7.082;2024-02-16T09:58:16;7.97;;;4.55;;
52456;SDS011;38369;52.840;7.082;2024-02-16T10:00:50;6.80;;;4.40;;
52456;SDS011;38369;52.840;7.082;2024-02-16T10:03:29;9.98;;;4.70;;
52456;SDS011;38369;52.840;7.082;2024-02-16T10:06:31;9.85;;;5.00;;
52456;SDS011;38369;52.840;7.082;2024-02-16T10:08:51;9.52;;;4.82;;
52456;SDS011;38369;52.840;7.082;2024-02-16T10:11:17;11.50;;;5.72;;
52456;SDS011;38369;52.840;7.082;2024-02-16T10:16:22;8.13;;;4.72;;
52456;SDS011;38369;52.840;7.082;2024-02-16T10:18:48;7.35;;;4.93;;
52456;SDS011;38369;52.840;7.082;2024-02-16T10:21:23;9.48;;;4.60;;
52456;SDS011;38369;52.840;7.082;2024-02-16T10:23:56;9.27;;;4.97;;
52456;SDS011;38369;52.840;7.082;2024-02-16T10:26:22;9.93;;;5.20;;
52456;SDS011;38369;52.840;7.082;2024-02-16T10:28:49;8.30;;;4.97;;
52456;SDS011;38369;52.840;7.082;2024-02-16T10:31:16;7.25;;;5.03;;
52456;SDS011;38369;52.840;7.082;2024-02-16T10:33:42;9.05;;;4.78;;
52456;SDS011;38369;52.840;7.082;2024-02-16T10:36:08;10.32;;;5.43;;
52456;SDS011;38369;52.840;7.082;2024-02-16T10:38:35;8.70;;;5.40;;
52456;SDS011;38369;52.840;7.082;2024-02-16T10:41:01;7.95;;;5.45;;
52456;SDS011;38369;52.840;7.082;2024-02-16T10:43:27;8.35;;;5.18;;
52456;SDS011;38369;52.840;7.082;2024-02-16T10:45:54;8.73;;;4.53;;
52456;SDS011;38369;52.840;7.082;2024-02-16T10:48:22;10.43;;;5.28;;
52456;SDS011;38369;52.840;7.082;2024-02-16T10:50:48;9.15;;;5.20;;
52456;SDS011;38369;52.840;7.082;2024-02-16T10:55:46;9.70;;;5.45;;
52456;SDS011;38369;52.840;7.082;2024-02-16T10:58:12;13.77;;;5.78;;
52456;SDS011;38369;52.840;7.082;2024-02-16T11:03:17;13.02;;;5.25;;
52456;SDS011;38369;52.840;7.082;2024-02-16T11:05:43;8.48;;;5.95;;
52456;SDS011;38369;52.840;7.082;2024-02-16T11:08:13;11.63;;;6.18;;
52456;SDS011;38369;52.840;7.082;2024-02-16T11:10:39;8.63;;;5.18;;
52456;SDS011;38369;52.840;7.082;2024-02-16T11:13:06;8.15;;;5.32;;
52456;SDS011;38369;52.840;7.082;2024-02-16T11:15:34;9.85;;;5.22;;
52456;SDS011;38369;52.840;7.082;2024-02-16T11:18:01;8.25;;;5.82;;
52456;SDS011;38369;52.840;7.082;2024-02-16T11:20:28;10.15;;;6.47;;
52456;SDS011;38369;52.840;7.082;2024-02-16T11:23:04;9.80;;;6.35;;
52456;SDS011;38369;52.840;7.082;2024-02-16T11:25:31;13.18;;;6.05;;
52456;SDS011;38369;52.840;7.082;2024-02-16T11:27:58;12.38;;;7.30;;
52456;SDS011;38369;52.840;7.082;2024-02-16T11:30:24;10.27;;;6.18;;
52456;SDS011;38369;52.840;7.082;2024-02-16T11:32:53;8.88;;;6.30;;
52456;SDS011;38369;52.840;7.082;2024-02-16T11:35:19;10.35;;;7.05;;
52456;SDS011;38369;52.840;7.082;2024-02-16T11:37:45;13.70;;;6.57;;
52456;SDS011;38369;52.840;7.082;2024-02-16T11:40:12;13.43;;;6.68;;
52456;SDS011;38369;52.840;7.082;2024-02-16T11:42:39;12.55;;;7.50;;
52456;SDS011;38369;52.840;7.082;2024-02-16T11:45:06;9.40;;;6.53;;
52456;SDS011;38369;52.840;7.082;2024-02-16T11:47:36;13.15;;;6.95;;
52456;SDS011;38369;52.840;7.082;2024-02-16T11:52:28;10.80;;;7.00;;
52456;SDS011;38369;52.840;7.082;2024-02-16T11:54:54;11.40;;;7.28;;
52456;SDS011;38369;52.840;7.082;2024-02-16T11:57:20;11.38;;;7.25;;
52456;SDS011;38369;52.840;7.082;2024-02-16T11:59:46;16.90;;;9.13;;
52456;SDS011;38369;52.840;7.082;2024-02-16T12:02:16;11.23;;;8.45;;
52456;SDS011;38369;52.840;7.082;2024-02-16T12:04:44;16.85;;;9.98;;
52456;SDS011;38369;52.840;7.082;2024-02-16T12:07:12;11.70;;;8.95;;
52456;SDS011;38369;52.840;7.082;2024-02-16T12:09:39;12.05;;;9.43;;
52456;SDS011;38369;52.840;7.082;2024-02-16T12:12:05;18.23;;;11.55;;
52456;SDS011;38369;52.840;7.082;2024-02-16T12:14:31;13.80;;;11.25;;
52456;SDS011;38369;52.840;7.082;2024-02-16T12:16:58;22.48;;;14.45;;
52456;SDS011;38369;52.840;7.082;2024-02-16T12:19:24;15.55;;;12.25;;
52456;SDS011;38369;52.840;7.082;2024-02-16T12:21:51;17.33;;;12.35;;
52456;SDS011;38369;52.840;7.082;2024-02-16T12:24:17;18.33;;;14.77;;
52456;SDS011;38369;52.840;7.082;2024-02-16T12:26:43;18.95;;;14.65;;
52456;SDS011;38369;52.840;7.082;2024-02-16T12:29:09;25.88;;;16.48;;
52456;SDS011;38369;52.840;7.082;2024-02-16T12:31:38;19.17;;;15.95;;
52456;SDS011;38369;52.840;7.082;2024-02-16T12:34:05;21.75;;;16.42;;
52456;SDS011;38369;52.840;7.082;2024-02-16T12:36:33;20.15;;;15.75;;
52456;SDS011;38369;52.840;7.082;2024-02-16T12:39:00;22.23;;;17.17;;
52456;SDS011;38369;52.840;7.082;2024-02-16T12:41:27;19.83;;;16.30;;
52456;SDS011;38369;52.840;7.082;2024-02-16T12:43:54;21.35;;;18.35;;
52456;SDS011;38369;52.840;7.082;2024-02-16T12:46:20;22.10;;;17.73;;
52456;SDS011;38369;52.840;7.082;2024-02-16T12:48:46;21.92;;;17.25;;
52456;SDS011;38369;52.840;7.082;2024-02-16T12:51:12;23.25;;;17.63;;
52456;SDS011;38369;52.840;7.082;2024-02-16T12:53:39;25.08;;;17.65;;
52456;SDS011;38369;52.840;7.082;2024-02-16T12:56:08;22.60;;;17.42;;
52456;SDS011;38369;52.840;7.082;2024-02-16T12:58:34;20.05;;;16.98;;
52456;SDS011;38369;52.840;7.082;2024-02-16T13:01:01;20.92;;;16.83;;
52456;SDS011;38369;52.840;7.082;2024-02-16T13:03:27;25.55;;;17.95;;
52456;SDS011;38369;52.840;7.082;2024-02-16T13:05:53;19.45;;;16.40;;
52456;SDS011;38369;52.840;7.082;2024-02-16T13:08:19;23.42;;;16.77;;
52456;SDS011;38369;52.840;7.082;2024-02-16T13:10:45;23.10;;;16.58;;
52456;SDS011;38369;52.840;7.082;2024-02-16T13:13:11;23.35;;;17.15;;
52456;SDS011;38369;52.840;7.082;2024-02-16T13:15:37;22.75;;;17.05;;
52456;SDS011;38369;52.840;7.082;2024-02-16T13:18:03;19.73;;;16.60;;
52456;SDS011;38369;52.840;7.082;2024-02-16T13:20:29;20.45;;;12.63;;
52456;SDS011;38369;52.840;7.082;2024-02-16T13:22:55;14.52;;;11.57;;
52456;SDS011;38369;52.840;7.082;2024-02-16T13:25:21;13.40;;;11.32;;
52456;SDS011;38369;52.840;7.082;2024-02-16T13:27:48;13.45;;;10.82;;
52456;SDS011;38369;52.840;7.082;2024-02-16T13:30:14;13.95;;;11.13;;
52456;SDS011;38369;52.840;7.082;2024-02-16T13:32:40;13.32;;;10.40;;
52456;SDS011;38369;52.840;7.082;2024-02-16T13:35:06;16.58;;;11.00;;
52456;SDS011;38369;52.840;7.082;2024-02-16T13:37:32;9.80;;;7.40;;
52456;SDS011;38369;52.840;7.082;2024-02-16T13:39:59;9.73;;;7.80;;
52456;SDS011;38369;52.840;7.082;2024-02-16T13:42:25;15.70;;;8.95;;
52456;SDS011;38369;52.840;7.082;2024-02-16T13:44:51;9.77;;;6.45;;
52456;SDS011;38369;52.840;7.082;2024-02-16T13:47:17;12.55;;;8.00;;
52456;SDS011;38369;52.840;7.082;2024-02-16T13:49:43;9.55;;;6.97;;
52456;SDS011;38369;52.840;7.082;2024-02-16T13:52:09;9.93;;;6.97;;
52456;SDS011;38369;52.840;7.082;2024-02-16T13:54:35;10.68;;;7.18;;
52456;SDS011;38369;52.840;7.082;2024-02-16T13:57:01;13.88;;;8.23;;
52456;SDS011;38369;52.840;7.082;2024-02-16T13:59:28;10.40;;;7.40;;
52456;SDS011;38369;52.840;7.082;2024-02-16T14:01:55;11.95;;;7.63;;
52456;SDS011;38369;52.840;7.082;2024-02-16T14:04:22;8.80;;;6.57;;
52456;SDS011;38369;52.840;7.082;2024-02-16T14:06:49;10.88;;;7.85;;
52456;SDS011;38369;52.840;7.082;2024-02-16T14:09:15;8.07;;;6.72;;
52456;SDS011;38369;52.840;7.082;2024-02-16T14:11:41;7.28;;;6.22;;
52456;SDS011;38369;52.840;7.082;2024-02-16T14:14:07;7.57;;;5.80;;
52456;SDS011;38369;52.840;7.082;2024-02-16T14:16:33;8.32;;;5.60;;
52456;SDS011;38369;52.840;7.082;2024-02-16T14:18:59;7.85;;;5.20;;
52456;SDS011;38369;52.840;7.082;2024-02-16T14:21:25;8.10;;;5.65;;
52456;SDS011;38369;52.840;7.082;2024-02-16T14:23:51;9.73;;;5.78;;
52456;SDS011;38369;52.840;7.082;2024-02-16T14:26:17;7.25;;;5.35;;
52456;SDS011;38369;52.840;7.082;2024-02-16T14:28:45;11.18;;;5.25;;
52456;SDS011;38369;52.840;7.082;2024-02-16T14:31:11;6.80;;;5.03;;
52456;SDS011;38369;52.840;7.082;2024-02-16T14:33:39;7.00;;;5.30;;
52456;SDS011;38369;52.840;7.082;2024-02-16T14:36:05;9.02;;;6.05;;
52456;SDS011;38369;52.840;7.082;2024-02-16T14:38:34;6.90;;;4.63;;
52456;SDS011;38369;52.840;7.082;2024-02-16T14:41:00;6.78;;;5.28;;
52456;SDS011;38369;52.840;7.082;2024-02-16T14:45:59;6.20;;;4.80;;
52456;SDS011;38369;52.840;7.082;2024-02-16T14:48:26;7.97;;;4.22;;
52456;SDS011;38369;52.840;7.082;2024-02-16T14:50:52;6.82;;;4.60;;